sensor_id;sensor_type;location;lat;lon;timestamp;P1;durP1;ratioP1;P2;durP2;ratioP2
75887;SDS011;64562;55.662;37.300;2023-12-20T00:02:01;1.67;;;0.43;;
75887;SDS011;64562;55.662;37.300;2023-12-20T00:04:28;0.68;;;0.25;;
75887;SDS011;64562;55.662;37.300;2023-12-20T00:06:54;0.82;;;0.20;;
75887;SDS011;64562;55.662;37.300;2023-12-20T00:09:21;2.20;;;0.68;;
75887;SDS011;64562;55.662;37.300;2023-12-20T00:11:48;1.05;;;0.30;;
75887;SDS011;64562;55.662;37.300;2023-12-20T00:14:14;1.00;;;0.20;;
75887;SDS011;64562;55.662;37.300;2023-12-20T00:16:41;0.47;;;0.32;;
75887;SDS011;64562;55.662;37.300;2023-12-20T00:19:09;1.48;;;0.30;;
75887;SDS011;64562;55.662;37.300;2023-12-20T00:21:36;1.55;;;0.47;;
75887;SDS011;64562;55.662;37.300;2023-12-20T00:24:03;1.10;;;0.40;;
75887;SDS011;64562;55.662;37.300;2023-12-20T00:26:30;0.93;;;0.25;;
75887;SDS011;64562;55.662;37.300;2023-12-20T00:28:56;0.70;;;0.20;;
75887;SDS011;64562;55.662;37.300;2023-12-20T00:31:23;0.90;;;0.25;;
75887;SDS011;64562;55.662;37.300;2023-12-20T00:33:50;0.70;;;0.30;;
75887;SDS011;64562;55.662;37.300;2023-12-20T00:36:18;2.65;;;0.30;;
75887;SDS011;64562;55.662;37.300;2023-12-20T00:38:44;1.20;;;0.30;;
75887;SDS011;64562;55.662;37.300;2023-12-20T00:41:11;1.05;;;0.40;;
75887;SDS011;64562;55.662;37.300;2023-12-20T00:43:38;0.73;;;0.30;;
75887;SDS011;64562;55.662;37.300;2023-12-20T00:46:04;1.80;;;0.30;;
75887;SDS011;64562;55.662;37.300;2023-12-20T00:48:31;1.50;;;0.30;;
75887;SDS011;64562;55.662;37.300;2023-12-20T00:50:58;1.02;;;0.32;;
75887;SDS011;64562;55.662;37.300;2023-12-20T00:53:26;0.80;;;0.50;;
75887;SDS011;64562;55.662;37.300;2023-12-20T00:55:52;0.77;;;0.30;;
75887;SDS011;64562;55.662;37.300;2023-12-20T00:58:19;1.23;;;0.30;;
75887;SDS011;64562;55.662;37.300;2023-12-20T01:00:46;1.20;;;0.40;;
75887;SDS011;64562;55.662;37.300;2023-12-20T01:03:13;0.45;;;0.25;;
75887;SDS011;64562;55.662;37.300;2023-12-20T01:05:40;0.38;;;0.10;;
75887;SDS011;64562;55.662;37.300;2023-12-20T01:08:07;1.45;;;0.40;;
75887;SDS011;64562;55.662;37.300;2023-12-20T01:10:35;2.03;;;0.40;;
75887;SDS011;64562;55.662;37.300;2023-12-20T01:13:01;0.80;;;0.20;;
75887;SDS011;64562;55.662;37.300;2023-12-20T01:15:28;1.40;;;0.47;;
75887;SDS011;64562;55.662;37.300;2023-12-20T01:17:55;1.83;;;0.30;;
75887;SDS011;64562;55.662;37.300;2023-12-20T01:20:23;1.40;;;0.30;;
75887;SDS011;64562;55.662;37.300;2023-12-20T01:22:50;1.40;;;0.20;;
75887;SDS011;64562;55.662;37.300;2023-12-20T01:25:18;0.52;;;0.20;;
75887;SDS011;64562;55.662;37.300;2023-12-20T01:27:46;0.75;;;0.20;;
75887;SDS011;64562;55.662;37.300;2023-12-20T01:30:13;1.13;;;0.40;;
75887;SDS011;64562;55.662;37.300;2023-12-20T01:32:39;0.63;;;0.30;;
75887;SDS011;64562;55.662;37.300;2023-12-20T01:35:06;1.08;;;0.20;;
75887;SDS011;64562;55.662;37.300;2023-12-20T01:37:33;0.93;;;0.20;;
75887;SDS011;64562;55.662;37.300;2023-12-20T01:40:00;0.50;;;0.20;;
75887;SDS011;64562;55.662;37.300;2023-12-20T01:42:27;1.38;;;0.30;;
75887;SDS011;64562;55.662;37.300;2023-12-20T01:44:56;0.52;;;0.20;;
75887;SDS011;64562;55.662;37.300;2023-12-20T01:47:22;1.42;;;0.20;;
75887;SDS011;64562;55.662;37.300;2023-12-20T01:49:49;0.38;;;0.13;;
75887;SDS011;64562;55.662;37.300;2023-12-20T01:52:16;1.35;;;0.10;;
75887;SDS011;64562;55.662;37.300;2023-12-20T01:54:43;0.50;;;0.20;;
75887;SDS011;64562;55.662;37.300;2023-12-20T01:57:10;1.17;;;0.30;;
75887;SDS011;64562;55.662;37.300;2023-12-20T01:59:37;1.17;;;0.30;;
75887;SDS011;64562;55.662;37.300;2023-12-20T02:02:07;1.73;;;0.30;;
75887;SDS011;64562;55.662;37.300;2023-12-20T02:04:34;0.57;;;0.25;;
75887;SDS011;64562;55.662;37.300;2023-12-20T02:07:01;1.27;;;0.20;;
75887;SDS011;64562;55.662;37.300;2023-12-20T02:09:29;0.47;;;0.30;;
75887;SDS011;64562;55.662;37.300;2023-12-20T02:11:55;1.00;;;0.20;;
75887;SDS011;64562;55.662;37.300;2023-12-20T02:14:21;0.50;;;0.20;;
75887;SDS011;64562;55.662;37.300;2023-12-20T02:16:48;0.80;;;0.20;;
75887;SDS011;64562;55.662;37.300;2023-12-20T02:19:16;0.95;;;0.20;;
75887;SDS011;64562;55.662;37.300;2023-12-20T02:21:45;0.57;;;0.20;;
75887;SDS011;64562;55.662;37.300;2023-12-20T02:24:12;0.60;;;0.25;;
75887;SDS011;64562;55.662;37.300;2023-12-20T02:26:38;0.20;;;0.10;;
75887;SDS011;64562;55.662;37.300;2023-12-20T02:29:05;0.50;;;0.13;;
75887;SDS011;64562;55.662;37.300;2023-12-20T02:31:32;0.20;;;0.10;;
75887;SDS011;64562;55.662;37.300;2023-12-20T02:33:58;1.20;;;0.20;;
75887;SDS011;64562;55.662;37.300;2023-12-20T02:36:25;0.75;;;0.30;;
75887;SDS011;64562;55.662;37.300;2023-12-20T02:38:53;0.50;;;0.15;;
75887;SDS011;64562;55.662;37.300;2023-12-20T02:41:20;0.63;;;0.20;;
75887;SDS011;64562;55.662;37.300;2023-12-20T02:43:47;0.77;;;0.45;;
75887;SDS011;64562;55.662;37.300;2023-12-20T02:46:14;0.65;;;0.20;;
75887;SDS011;64562;55.662;37.300;2023-12-20T02:48:42;2.65;;;0.40;;
75887;SDS011;64562;55.662;37.300;2023-12-20T02:51:08;0.60;;;0.30;;
75887;SDS011;64562;55.662;37.300;2023-12-20T02:53:35;0.65;;;0.22;;
75887;SDS011;64562;55.662;37.300;2023-12-20T02:56:04;0.95;;;0.20;;
75887;SDS011;64562;55.662;37.300;2023-12-20T02:58:30;1.15;;;0.20;;
75887;SDS011;64562;55.662;37.300;2023-12-20T03:00:57;1.33;;;0.40;;
75887;SDS011;64562;55.662;37.300;2023-12-20T03:03:24;1.92;;;0.30;;
75887;SDS011;64562;55.662;37.300;2023-12-20T03:05:51;1.02;;;0.20;;
75887;SDS011;64562;55.662;37.300;2023-12-20T03:08:18;0.40;;;0.20;;
75887;SDS011;64562;55.662;37.300;2023-12-20T03:10:44;0.63;;;0.40;;
75887;SDS011;64562;55.662;37.300;2023-12-20T03:13:13;0.50;;;0.20;;
75887;SDS011;64562;55.662;37.300;2023-12-20T03:15:39;1.15;;;0.30;;
75887;SDS011;64562;55.662;37.300;2023-12-20T03:18:06;0.98;;;0.30;;
75887;SDS011;64562;55.662;37.300;2023-12-20T03:20:33;0.63;;;0.30;;
75887;SDS011;64562;55.662;37.300;2023-12-20T03:22:59;0.85;;;0.20;;
75887;SDS011;64562;55.662;37.300;2023-12-20T03:25:26;1.02;;;0.40;;
75887;SDS011;64562;55.662;37.300;2023-12-20T03:27:53;2.15;;;0.30;;
75887;SDS011;64562;55.662;37.300;2023-12-20T03:30:21;1.95;;;0.30;;
75887;SDS011;64562;55.662;37.300;2023-12-20T03:32:48;2.80;;;0.30;;
75887;SDS011;64562;55.662;37.300;2023-12-20T03:35:14;1.02;;;0.30;;
75887;SDS011;64562;55.662;37.300;2023-12-20T03:37:41;0.80;;;0.35;;
75887;SDS011;64562;55.662;37.300;2023-12-20T03:40:08;0.30;;;0.20;;
75887;SDS011;64562;55.662;37.300;2023-12-20T03:42:35;0.75;;;0.40;;
75887;SDS011;64562;55.662;37.300;2023-12-20T03:45:01;0.55;;;0.30;;
75887;SDS011;64562;55.662;37.300;2023-12-20T03:47:30;0.70;;;0.35;;
75887;SDS011;64562;55.662;37.300;2023-12-20T03:49:56;2.03;;;1.02;;
75887;SDS011;64562;55.662;37.300;2023-12-20T03:52:23;2.53;;;1.20;;
75887;SDS011;64562;55.662;37.300;2023-12-20T03:54:50;6.50;;;2.50;;
75887;SDS011;64562;55.662;37.300;2023-12-20T03:57:16;3.42;;;2.05;;
75887;SDS011;64562;55.662;37.300;2023-12-20T03:59:43;2.95;;;1.60;;
75887;SDS011;64562;55.662;37.300;2023-12-20T04:02:10;4.07;;;1.25;;
75887;SDS011;64562;55.662;37.300;2023-12-20T04:04:38;2.95;;;2.08;;
75887;SDS011;64562;55.662;37.300;2023-12-20T04:07:04;4.63;;;2.28;;
75887;SDS011;64562;55.662;37.300;2023-12-20T04:09:31;2.25;;;1.40;;
75887;SDS011;64562;55.662;37.300;2023-12-20T04:11:57;3.30;;;1.70;;
75887;SDS011;64562;55.662;37.300;2023-12-20T04:14:24;2.80;;;1.58;;
75887;SDS011;64562;55.662;37.300;2023-12-20T04:16:51;2.97;;;1.45;;
75887;SDS011;64562;55.662;37.300;2023-12-20T04:19:17;4.47;;;1.73;;
75887;SDS011;64562;55.662;37.300;2023-12-20T04:21:45;3.45;;;1.35;;
75887;SDS011;64562;55.662;37.300;2023-12-20T04:24:12;4.60;;;1.77;;
75887;SDS011;64562;55.662;37.300;2023-12-20T04:26:39;2.30;;;1.13;;
75887;SDS011;64562;55.662;37.300;2023-12-20T04:29:05;3.00;;;1.35;;
75887;SDS011;64562;55.662;37.300;2023-12-20T04:31:32;2.20;;;1.13;;
75887;SDS011;64562;55.662;37.300;2023-12-20T04:33:59;1.50;;;0.70;;
75887;SDS011;64562;55.662;37.300;2023-12-20T04:36:25;2.85;;;0.60;;
75887;SDS011;64562;55.662;37.300;2023-12-20T04:38:56;1.58;;;0.70;;
75887;SDS011;64562;55.662;37.300;2023-12-20T04:41:23;1.23;;;0.80;;
75887;SDS011;64562;55.662;37.300;2023-12-20T04:43:49;2.80;;;0.68;;
75887;SDS011;64562;55.662;37.300;2023-12-20T04:46:16;2.28;;;0.90;;
75887;SDS011;64562;55.662;37.300;2023-12-20T04:48:43;1.23;;;0.60;;
75887;SDS011;64562;55.662;37.300;2023-12-20T04:51:10;1.30;;;0.60;;
75887;SDS011;64562;55.662;37.300;2023-12-20T04:53:36;1.25;;;0.60;;
75887;SDS011;64562;55.662;37.300;2023-12-20T04:56:06;0.77;;;0.50;;
75887;SDS011;64562;55.662;37.300;2023-12-20T04:58:32;3.20;;;0.88;;
75887;SDS011;64562;55.662;37.300;2023-12-20T05:00:59;1.00;;;0.50;;
75887;SDS011;64562;55.662;37.300;2023-12-20T05:03:26;2.75;;;0.70;;
75887;SDS011;64562;55.662;37.300;2023-12-20T05:08:44;1.20;;;0.68;;
75887;SDS011;64562;55.662;37.300;2023-12-20T05:11:12;2.22;;;0.70;;
75887;SDS011;64562;55.662;37.300;2023-12-20T05:13:40;1.23;;;0.70;;
75887;SDS011;64562;55.662;37.300;2023-12-20T05:16:07;1.60;;;0.77;;
75887;SDS011;64562;55.662;37.300;2023-12-20T05:18:34;0.88;;;0.68;;
75887;SDS011;64562;55.662;37.300;2023-12-20T05:21:00;1.35;;;0.80;;
75887;SDS011;64562;55.662;37.300;2023-12-20T05:23:27;1.17;;;0.70;;
75887;SDS011;64562;55.662;37.300;2023-12-20T05:25:54;1.13;;;0.57;;
75887;SDS011;64562;55.662;37.300;2023-12-20T05:28:22;1.30;;;0.68;;
75887;SDS011;64562;55.662;37.300;2023-12-20T05:30:49;1.33;;;0.68;;
75887;SDS011;64562;55.662;37.300;2023-12-20T05:33:15;2.30;;;0.68;;
75887;SDS011;64562;55.662;37.300;2023-12-20T05:35:42;1.95;;;0.70;;
75887;SDS011;64562;55.662;37.300;2023-12-20T05:38:09;1.45;;;0.60;;
75887;SDS011;64562;55.662;37.300;2023-12-20T05:40:35;0.90;;;0.50;;
75887;SDS011;64562;55.662;37.300;2023-12-20T05:43:02;1.30;;;0.50;;
75887;SDS011;64562;55.662;37.300;2023-12-20T05:45:30;0.50;;;0.32;;
75887;SDS011;64562;55.662;37.300;2023-12-20T05:47:57;1.15;;;0.60;;
75887;SDS011;64562;55.662;37.300;2023-12-20T05:50:24;2.03;;;0.65;;
75887;SDS011;64562;55.662;37.300;2023-12-20T05:52:51;1.00;;;0.60;;
75887;SDS011;64562;55.662;37.300;2023-12-20T05:55:18;1.08;;;0.50;;
75887;SDS011;64562;55.662;37.300;2023-12-20T05:57:45;0.85;;;0.50;;
75887;SDS011;64562;55.662;37.300;2023-12-20T06:00:12;0.73;;;0.60;;
75887;SDS011;64562;55.662;37.300;2023-12-20T06:02:42;0.88;;;0.65;;
75887;SDS011;64562;55.662;37.300;2023-12-20T06:05:08;2.05;;;0.60;;
75887;SDS011;64562;55.662;37.300;2023-12-20T06:07:35;1.60;;;0.70;;
75887;SDS011;64562;55.662;37.300;2023-12-20T06:10:02;1.58;;;0.50;;
75887;SDS011;64562;55.662;37.300;2023-12-20T06:12:28;0.82;;;0.47;;
75887;SDS011;64562;55.662;37.300;2023-12-20T06:14:57;1.92;;;0.60;;
75887;SDS011;64562;55.662;37.300;2023-12-20T06:17:24;1.75;;;0.70;;
75887;SDS011;64562;55.662;37.300;2023-12-20T06:19:52;1.80;;;0.45;;
75887;SDS011;64562;55.662;37.300;2023-12-20T06:22:19;1.50;;;0.80;;
75887;SDS011;64562;55.662;37.300;2023-12-20T06:24:46;1.20;;;0.50;;
75887;SDS011;64562;55.662;37.300;2023-12-20T06:27:12;2.45;;;0.60;;
75887;SDS011;64562;55.662;37.300;2023-12-20T06:29:39;2.08;;;0.50;;
75887;SDS011;64562;55.662;37.300;2023-12-20T06:32:07;0.95;;;0.60;;
75887;SDS011;64562;55.662;37.300;2023-12-20T06:34:35;1.10;;;0.60;;
75887;SDS011;64562;55.662;37.300;2023-12-20T06:37:04;1.02;;;0.68;;
75887;SDS011;64562;55.662;37.300;2023-12-20T06:39:31;1.35;;;0.47;;
75887;SDS011;64562;55.662;37.300;2023-12-20T06:41:59;1.88;;;0.60;;
75887;SDS011;64562;55.662;37.300;2023-12-20T06:44:25;0.90;;;0.50;;
75887;SDS011;64562;55.662;37.300;2023-12-20T06:46:52;0.93;;;0.40;;
75887;SDS011;64562;55.662;37.300;2023-12-20T06:49:19;0.95;;;0.50;;
75887;SDS011;64562;55.662;37.300;2023-12-20T06:51:46;2.63;;;0.52;;
75887;SDS011;64562;55.662;37.300;2023-12-20T06:54:14;1.55;;;0.50;;
75887;SDS011;64562;55.662;37.300;2023-12-20T06:56:40;2.08;;;0.57;;
75887;SDS011;64562;55.662;37.300;2023-12-20T06:59:07;0.75;;;0.47;;
75887;SDS011;64562;55.662;37.300;2023-12-20T07:01:34;2.22;;;0.60;;
75887;SDS011;64562;55.662;37.300;2023-12-20T07:04:00;1.70;;;0.40;;
75887;SDS011;64562;55.662;37.300;2023-12-20T07:06:27;1.45;;;0.35;;
75887;SDS011;64562;55.662;37.300;2023-12-20T07:08:54;0.90;;;0.55;;
75887;SDS011;64562;55.662;37.300;2023-12-20T07:11:22;0.75;;;0.50;;
75887;SDS011;64562;55.662;37.300;2023-12-20T07:13:49;1.40;;;0.60;;
75887;SDS011;64562;55.662;37.300;2023-12-20T07:16:16;2.17;;;1.05;;
75887;SDS011;64562;55.662;37.300;2023-12-20T07:18:43;1.05;;;0.40;;
75887;SDS011;64562;55.662;37.300;2023-12-20T07:21:09;1.30;;;0.52;;
75887;SDS011;64562;55.662;37.300;2023-12-20T07:23:36;3.40;;;0.85;;
75887;SDS011;64562;55.662;37.300;2023-12-20T07:26:03;0.73;;;0.45;;
75887;SDS011;64562;55.662;37.300;2023-12-20T07:28:32;0.65;;;0.30;;
75887;SDS011;64562;55.662;37.300;2023-12-20T07:30:58;1.17;;;0.40;;
75887;SDS011;64562;55.662;37.300;2023-12-20T07:33:25;0.77;;;0.52;;
75887;SDS011;64562;55.662;37.300;2023-12-20T07:35:52;0.80;;;0.40;;
75887;SDS011;64562;55.662;37.300;2023-12-20T07:38:18;1.60;;;0.40;;
75887;SDS011;64562;55.662;37.300;2023-12-20T07:40:45;0.77;;;0.30;;
75887;SDS011;64562;55.662;37.300;2023-12-20T07:43:12;0.82;;;0.40;;
75887;SDS011;64562;55.662;37.300;2023-12-20T07:45:40;1.17;;;0.50;;
75887;SDS011;64562;55.662;37.300;2023-12-20T07:48:07;0.43;;;0.40;;
75887;SDS011;64562;55.662;37.300;2023-12-20T07:50:33;2.42;;;0.50;;
75887;SDS011;64562;55.662;37.300;2023-12-20T07:53:00;0.80;;;0.40;;
75887;SDS011;64562;55.662;37.300;2023-12-20T07:55:27;1.85;;;0.45;;
75887;SDS011;64562;55.662;37.300;2023-12-20T07:57:53;0.90;;;0.40;;
75887;SDS011;64562;55.662;37.300;2023-12-20T08:00:20;0.60;;;0.35;;
75887;SDS011;64562;55.662;37.300;2023-12-20T08:02:48;1.15;;;0.52;;
75887;SDS011;64562;55.662;37.300;2023-12-20T08:05:15;0.80;;;0.47;;
75887;SDS011;64562;55.662;37.300;2023-12-20T08:07:41;1.42;;;0.50;;
75887;SDS011;64562;55.662;37.300;2023-12-20T08:10:08;0.45;;;0.45;;
75887;SDS011;64562;55.662;37.300;2023-12-20T08:12:35;0.32;;;0.30;;
75887;SDS011;64562;55.662;37.300;2023-12-20T08:15:02;0.70;;;0.47;;
75887;SDS011;64562;55.662;37.300;2023-12-20T08:17:29;2.42;;;0.43;;
75887;SDS011;64562;55.662;37.300;2023-12-20T08:19:57;0.93;;;0.40;;
75887;SDS011;64562;55.662;37.300;2023-12-20T08:22:25;0.50;;;0.40;;
75887;SDS011;64562;55.662;37.300;2023-12-20T08:24:51;0.60;;;0.40;;
75887;SDS011;64562;55.662;37.300;2023-12-20T08:27:18;2.25;;;0.50;;
75887;SDS011;64562;55.662;37.300;2023-12-20T08:29:45;1.45;;;0.60;;
75887;SDS011;64562;55.662;37.300;2023-12-20T08:32:12;0.70;;;0.50;;
75887;SDS011;64562;55.662;37.300;2023-12-20T08:34:39;1.38;;;0.40;;
75887;SDS011;64562;55.662;37.300;2023-12-20T08:37:09;1.33;;;0.40;;
75887;SDS011;64562;55.662;37.300;2023-12-20T08:39:36;0.63;;;0.40;;
75887;SDS011;64562;55.662;37.300;2023-12-20T08:42:03;0.70;;;0.32;;
75887;SDS011;64562;55.662;37.300;2023-12-20T08:44:30;0.68;;;0.40;;
75887;SDS011;64562;55.662;37.300;2023-12-20T08:46:56;0.80;;;0.50;;
75887;SDS011;64562;55.662;37.300;2023-12-20T08:49:23;0.77;;;0.30;;
75887;SDS011;64562;55.662;37.300;2023-12-20T08:51:50;0.68;;;0.50;;
75887;SDS011;64562;55.662;37.300;2023-12-20T08:54:18;1.08;;;0.43;;
75887;SDS011;64562;55.662;37.300;2023-12-20T08:56:45;0.73;;;0.50;;
75887;SDS011;64562;55.662;37.300;2023-12-20T08:59:12;1.15;;;0.40;;
75887;SDS011;64562;55.662;37.300;2023-12-20T09:01:39;0.80;;;0.35;;
75887;SDS011;64562;55.662;37.300;2023-12-20T09:04:06;1.00;;;0.40;;
75887;SDS011;64562;55.662;37.300;2023-12-20T09:06:32;1.55;;;0.38;;
75887;SDS011;64562;55.662;37.300;2023-12-20T09:08:59;1.10;;;0.52;;
75887;SDS011;64562;55.662;37.300;2023-12-20T09:11:27;1.75;;;0.50;;
75887;SDS011;64562;55.662;37.300;2023-12-20T09:13:54;0.77;;;0.30;;
75887;SDS011;64562;55.662;37.300;2023-12-20T09:16:21;0.50;;;0.40;;
75887;SDS011;64562;55.662;37.300;2023-12-20T09:18:47;0.30;;;0.30;;
75887;SDS011;64562;55.662;37.300;2023-12-20T09:21:14;1.05;;;0.30;;
75887;SDS011;64562;55.662;37.300;2023-12-20T09:23:41;0.55;;;0.22;;
75887;SDS011;64562;55.662;37.300;2023-12-20T09:26:07;0.80;;;0.47;;
75887;SDS011;64562;55.662;37.300;2023-12-20T09:28:35;0.82;;;0.30;;
75887;SDS011;64562;55.662;37.300;2023-12-20T09:31:03;0.75;;;0.30;;
75887;SDS011;64562;55.662;37.300;2023-12-20T09:33:30;0.80;;;0.30;;
75887;SDS011;64562;55.662;37.300;2023-12-20T09:35:57;1.50;;;0.40;;
75887;SDS011;64562;55.662;37.300;2023-12-20T09:38:23;0.77;;;0.40;;
75887;SDS011;64562;55.662;37.300;2023-12-20T09:40:50;0.60;;;0.35;;
75887;SDS011;64562;55.662;37.300;2023-12-20T09:43:18;0.50;;;0.20;;
75887;SDS011;64562;55.662;37.300;2023-12-20T09:45:47;0.65;;;0.30;;
75887;SDS011;64562;55.662;37.300;2023-12-20T09:48:14;0.77;;;0.38;;
75887;SDS011;64562;55.662;37.300;2023-12-20T09:50:44;1.50;;;0.47;;
75887;SDS011;64562;55.662;37.300;2023-12-20T09:53:11;0.85;;;0.47;;
75887;SDS011;64562;55.662;37.300;2023-12-20T09:55:41;1.60;;;0.50;;
75887;SDS011;64562;55.662;37.300;2023-12-20T09:58:07;0.63;;;0.40;;
75887;SDS011;64562;55.662;37.300;2023-12-20T10:00:34;0.57;;;0.30;;
75887;SDS011;64562;55.662;37.300;2023-12-20T10:03:02;0.95;;;0.40;;
75887;SDS011;64562;55.662;37.300;2023-12-20T10:05:30;0.98;;;0.40;;
75887;SDS011;64562;55.662;37.300;2023-12-20T10:07:58;0.60;;;0.30;;
75887;SDS011;64562;55.662;37.300;2023-12-20T10:10:25;0.75;;;0.30;;
75887;SDS011;64562;55.662;37.300;2023-12-20T10:13:01;0.57;;;0.38;;
75887;SDS011;64562;55.662;37.300;2023-12-20T10:15:28;0.50;;;0.20;;
75887;SDS011;64562;55.662;37.300;2023-12-20T10:17:56;0.70;;;0.35;;
75887;SDS011;64562;55.662;37.300;2023-12-20T10:20:24;0.85;;;0.30;;
75887;SDS011;64562;55.662;37.300;2023-12-20T10:22:51;0.70;;;0.30;;
75887;SDS011;64562;55.662;37.300;2023-12-20T10:25:19;0.70;;;0.30;;
75887;SDS011;64562;55.662;37.300;2023-12-20T10:27:46;0.73;;;0.38;;
75887;SDS011;64562;55.662;37.300;2023-12-20T10:30:13;2.35;;;0.30;;
75887;SDS011;64562;55.662;37.300;2023-12-20T10:32:39;0.68;;;0.25;;
75887;SDS011;64562;55.662;37.300;2023-12-20T10:35:07;0.68;;;0.35;;
75887;SDS011;64562;55.662;37.300;2023-12-20T10:37:36;0.63;;;0.35;;
75887;SDS011;64562;55.662;37.300;2023-12-20T10:40:03;0.80;;;0.30;;
75887;SDS011;64562;55.662;37.300;2023-12-20T10:42:31;0.63;;;0.30;;
75887;SDS011;64562;55.662;37.300;2023-12-20T10:44:58;1.80;;;0.38;;
75887;SDS011;64562;55.662;37.300;2023-12-20T10:47:25;0.60;;;0.40;;
75887;SDS011;64562;55.662;37.300;2023-12-20T10:49:52;0.60;;;0.40;;
75887;SDS011;64562;55.662;37.300;2023-12-20T10:52:19;0.70;;;0.28;;
75887;SDS011;64562;55.662;37.300;2023-12-20T10:54:47;0.80;;;0.40;;
75887;SDS011;64562;55.662;37.300;2023-12-20T10:57:14;1.63;;;0.40;;
75887;SDS011;64562;55.662;37.300;2023-12-20T10:59:44;0.82;;;0.30;;
75887;SDS011;64562;55.662;37.300;2023-12-20T11:02:12;0.47;;;0.40;;
75887;SDS011;64562;55.662;37.300;2023-12-20T11:04:41;0.43;;;0.30;;
75887;SDS011;64562;55.662;37.300;2023-12-20T11:07:15;0.50;;;0.30;;
75887;SDS011;64562;55.662;37.300;2023-12-20T11:09:47;0.80;;;0.40;;
75887;SDS011;64562;55.662;37.300;2023-12-20T11:12:17;0.88;;;0.20;;
75887;SDS011;64562;55.662;37.300;2023-12-20T11:14:46;0.40;;;0.20;;
75887;SDS011;64562;55.662;37.300;2023-12-20T11:17:13;0.75;;;0.40;;
75887;SDS011;64562;55.662;37.300;2023-12-20T11:22:33;0.80;;;0.38;;
75887;SDS011;64562;55.662;37.300;2023-12-20T11:25:04;1.15;;;0.30;;
75887;SDS011;64562;55.662;37.300;2023-12-20T11:27:31;0.55;;;0.52;;
75887;SDS011;64562;55.662;37.300;2023-12-20T11:29:58;0.80;;;0.50;;
75887;SDS011;64562;55.662;37.300;2023-12-20T11:32:29;0.77;;;0.25;;
75887;SDS011;64562;55.662;37.300;2023-12-20T11:37:25;0.60;;;0.30;;
75887;SDS011;64562;55.662;37.300;2023-12-20T11:39:54;4.43;;;0.57;;
75887;SDS011;64562;55.662;37.300;2023-12-20T11:42:23;0.55;;;0.30;;
75887;SDS011;64562;55.662;37.300;2023-12-20T11:44:50;0.57;;;0.40;;
75887;SDS011;64562;55.662;37.300;2023-12-20T11:47:16;0.93;;;0.40;;
75887;SDS011;64562;55.662;37.300;2023-12-20T11:49:44;0.40;;;0.22;;
75887;SDS011;64562;55.662;37.300;2023-12-20T11:52:12;0.93;;;0.30;;
75887;SDS011;64562;55.662;37.300;2023-12-20T11:54:38;0.40;;;0.20;;
75887;SDS011;64562;55.662;37.300;2023-12-20T11:57:05;0.60;;;0.20;;
75887;SDS011;64562;55.662;37.300;2023-12-20T11:59:33;0.80;;;0.40;;
75887;SDS011;64562;55.662;37.300;2023-12-20T12:01:59;1.67;;;0.30;;
75887;SDS011;64562;55.662;37.300;2023-12-20T12:04:26;0.60;;;0.30;;
75887;SDS011;64562;55.662;37.300;2023-12-20T12:06:53;0.52;;;0.30;;
75887;SDS011;64562;55.662;37.300;2023-12-20T12:09:20;0.68;;;0.40;;
75887;SDS011;64562;55.662;37.300;2023-12-20T12:11:46;0.50;;;0.40;;
75887;SDS011;64562;55.662;37.300;2023-12-20T12:14:13;0.40;;;0.20;;
75887;SDS011;64562;55.662;37.300;2023-12-20T12:16:42;0.52;;;0.30;;
75887;SDS011;64562;55.662;37.300;2023-12-20T12:19:19;0.93;;;0.40;;
75887;SDS011;64562;55.662;37.300;2023-12-20T12:21:46;0.50;;;0.30;;
75887;SDS011;64562;55.662;37.300;2023-12-20T12:24:13;0.40;;;0.20;;
75887;SDS011;64562;55.662;37.300;2023-12-20T12:26:39;0.50;;;0.30;;
75887;SDS011;64562;55.662;37.300;2023-12-20T12:29:07;0.98;;;0.40;;
75887;SDS011;64562;55.662;37.300;2023-12-20T12:31:34;0.93;;;0.25;;
75887;SDS011;64562;55.662;37.300;2023-12-20T12:34:03;0.52;;;0.22;;
75887;SDS011;64562;55.662;37.300;2023-12-20T12:36:29;0.60;;;0.40;;
75887;SDS011;64562;55.662;37.300;2023-12-20T12:38:56;0.45;;;0.30;;
75887;SDS011;64562;55.662;37.300;2023-12-20T12:41:23;1.08;;;0.40;;
75887;SDS011;64562;55.662;37.300;2023-12-20T12:43:50;0.47;;;0.20;;
75887;SDS011;64562;55.662;37.300;2023-12-20T12:46:17;0.70;;;0.20;;
75887;SDS011;64562;55.662;37.300;2023-12-20T12:48:43;0.40;;;0.22;;
75887;SDS011;64562;55.662;37.300;2023-12-20T12:51:12;0.75;;;0.38;;
75887;SDS011;64562;55.662;37.300;2023-12-20T12:53:39;2.28;;;0.40;;
75887;SDS011;64562;55.662;37.300;2023-12-20T12:56:06;0.82;;;0.30;;
75887;SDS011;64562;55.662;37.300;2023-12-20T12:58:33;0.95;;;0.20;;
75887;SDS011;64562;55.662;37.300;2023-12-20T13:00:59;0.88;;;0.40;;
75887;SDS011;64562;55.662;37.300;2023-12-20T13:03:26;0.60;;;0.40;;
75887;SDS011;64562;55.662;37.300;2023-12-20T13:05:54;1.48;;;0.40;;
75887;SDS011;64562;55.662;37.300;2023-12-20T13:08:23;0.98;;;0.30;;
75887;SDS011;64562;55.662;37.300;2023-12-20T13:10:49;0.40;;;0.30;;
75887;SDS011;64562;55.662;37.300;2023-12-20T13:13:16;1.23;;;0.22;;
75887;SDS011;64562;55.662;37.300;2023-12-20T13:15:43;0.50;;;0.30;;
75887;SDS011;64562;55.662;37.300;2023-12-20T13:18:17;1.80;;;0.32;;
75887;SDS011;64562;55.662;37.300;2023-12-20T13:20:44;0.88;;;0.40;;
75887;SDS011;64562;55.662;37.300;2023-12-20T13:23:11;0.52;;;0.22;;
75887;SDS011;64562;55.662;37.300;2023-12-20T13:25:39;0.55;;;0.22;;
75887;SDS011;64562;55.662;37.300;2023-12-20T13:28:06;0.50;;;0.28;;
75887;SDS011;64562;55.662;37.300;2023-12-20T13:30:33;0.60;;;0.22;;
75887;SDS011;64562;55.662;37.300;2023-12-20T13:33:00;1.48;;;0.38;;
75887;SDS011;64562;55.662;37.300;2023-12-20T13:35:27;0.80;;;0.38;;
75887;SDS011;64562;55.662;37.300;2023-12-20T13:37:54;0.65;;;0.30;;
75887;SDS011;64562;55.662;37.300;2023-12-20T13:40:21;0.93;;;0.40;;
75887;SDS011;64562;55.662;37.300;2023-12-20T13:42:50;0.93;;;0.40;;
75887;SDS011;64562;55.662;37.300;2023-12-20T13:45:16;0.40;;;0.20;;
75887;SDS011;64562;55.662;37.300;2023-12-20T13:47:43;1.15;;;0.40;;
75887;SDS011;64562;55.662;37.300;2023-12-20T13:50:10;0.40;;;0.40;;
75887;SDS011;64562;55.662;37.300;2023-12-20T13:52:37;0.55;;;0.30;;
75887;SDS011;64562;55.662;37.300;2023-12-20T13:55:04;0.85;;;0.40;;
75887;SDS011;64562;55.662;37.300;2023-12-20T13:57:32;1.40;;;0.32;;
75887;SDS011;64562;55.662;37.300;2023-12-20T14:00:00;0.52;;;0.20;;
75887;SDS011;64562;55.662;37.300;2023-12-20T14:02:28;0.63;;;0.35;;
75887;SDS011;64562;55.662;37.300;2023-12-20T14:04:55;0.70;;;0.40;;
75887;SDS011;64562;55.662;37.300;2023-12-20T14:07:22;0.43;;;0.20;;
75887;SDS011;64562;55.662;37.300;2023-12-20T14:09:49;0.40;;;0.20;;
75887;SDS011;64562;55.662;37.300;2023-12-20T14:12:17;0.80;;;0.30;;
75887;SDS011;64562;55.662;37.300;2023-12-20T14:14:45;1.15;;;0.40;;
75887;SDS011;64562;55.662;37.300;2023-12-20T14:17:13;0.70;;;0.30;;
75887;SDS011;64562;55.662;37.300;2023-12-20T14:19:40;0.82;;;0.43;;
75887;SDS011;64562;55.662;37.300;2023-12-20T14:22:06;1.38;;;0.40;;
75887;SDS011;64562;55.662;37.300;2023-12-20T14:24:33;1.30;;;0.40;;
75887;SDS011;64562;55.662;37.300;2023-12-20T14:27:01;0.52;;;0.30;;
75887;SDS011;64562;55.662;37.300;2023-12-20T14:29:27;2.35;;;0.30;;
75887;SDS011;64562;55.662;37.300;2023-12-20T14:31:54;0.68;;;0.40;;
75887;SDS011;64562;55.662;37.300;2023-12-20T14:34:22;1.23;;;0.40;;
75887;SDS011;64562;55.662;37.300;2023-12-20T14:36:49;1.08;;;0.40;;
75887;SDS011;64562;55.662;37.300;2023-12-20T14:39:17;0.88;;;0.35;;
75887;SDS011;64562;55.662;37.300;2023-12-20T14:41:44;0.60;;;0.40;;